Time;durP1;ratioP1;P1;durP2;ratioP2;P2;SDS_P1;SDS_P2;PMS_P1;PMS_P2;Temp;Humidity;BMP_temperature;BMP_pressure;BME280_temperature;BME280_humidity;BME280_pressure;Samples;Min_cycle;Max_cycle;Signal;HPM_P1;HPM_P2
2022/07/14 00:01:26;;;;;;;6.70;2.10;;;17.60;99.90;;;;;;4904611;29;39062;-81
2022/07/14 00:03:55;;;;;;;7.07;1.77;;;17.60;99.90;;;;;;4892386;29;38932;-80
2022/07/14 00:06:21;;;;;;;9.40;2.10;;;17.60;99.90;;;;;;4885042;29;38959;-80
2022/07/14 00:08:47;;;;;;;9.52;2.28;;;17.60;99.90;;;;;;4892862;29;38345;-81
2022/07/14 00:11:15;;;;;;;10.60;2.08;;;17.60;99.90;;;;;;4883833;29;37403;-81
2022/07/14 00:13:41;;;;;;;10.15;2.13;;;17.60;99.90;;;;;;4881968;29;39076;-81
2022/07/14 00:16:07;;;;;;;5.43;1.80;;;17.50;99.90;;;;;;4894963;29;38951;-80
2022/07/14 00:18:43;;;;;;;12.70;1.95;;;17.50;99.90;;;;;;4916405;29;39760;-80
2022/07/14 00:21:10;;;;;;;10.70;2.00;;;17.50;99.90;;;;;;4894034;29;38455;-81
2022/07/14 00:23:45;;;;;;;9.63;2.40;;;17.50;99.90;;;;;;4883131;29;38208;-80
2022/07/14 00:26:12;;;;;;;8.05;1.95;;;17.50;99.90;;;;;;4891646;29;39030;-81
2022/07/14 00:28:42;;;;;;;8.20;1.92;;;17.40;99.90;;;;;;4895955;29;38595;-80
2022/07/14 00:31:10;;;;;;;9.27;2.08;;;17.40;99.90;;;;;;4892012;29;37082;-80
2022/07/14 00:33:38;;;;;;;11.10;2.80;;;17.40;99.90;;;;;;4913574;29;41021;-81
2022/07/14 00:36:07;;;;;;;8.90;2.63;;;17.30;99.90;;;;;;4883794;29;38894;-81
2022/07/14 00:38:42;;;;;;;8.38;2.03;;;17.30;99.90;;;;;;4881147;29;37674;-80
2022/07/14 00:41:08;;;;;;;9.30;2.15;;;17.30;99.90;;;;;;4913107;29;38578;-80
2022/07/14 00:43:40;;;;;;;7.97;2.17;;;17.20;99.90;;;;;;4914731;29;40229;-81
2022/07/14 00:46:07;;;;;;;7.85;1.70;;;17.20;99.90;;;;;;4895644;29;37631;-80
2022/07/14 00:48:38;;;;;;;10.20;2.13;;;17.10;99.90;;;;;;4897782;29;39177;-81
2022/07/14 00:51:09;;;;;;;13.82;2.30;;;17.10;99.90;;;;;;4883743;29;37506;-80
2022/07/14 00:53:35;;;;;;;7.85;2.50;;;17.10;99.90;;;;;;4898931;29;38613;-80
2022/07/14 00:56:02;;;;;;;10.50;2.83;;;17.00;99.90;;;;;;4883071;29;37473;-80
2022/07/14 00:58:28;;;;;;;12.45;2.35;;;17.00;99.90;;;;;;4882046;29;37964;-81
2022/07/14 01:00:55;;;;;;;12.13;2.20;;;16.90;99.90;;;;;;4881959;29;37219;-80
2022/07/14 01:03:21;;;;;;;8.13;1.60;;;17.00;99.90;;;;;;4879639;29;39375;-80
2022/07/14 01:05:47;;;;;;;8.75;1.60;;;16.90;99.90;;;;;;4883369;29;38813;-80
2022/07/14 01:08:13;;;;;;;13.23;2.75;;;16.90;99.90;;;;;;4880941;29;37940;-81
2022/07/14 01:10:40;;;;;;;7.03;1.50;;;16.80;99.90;;;;;;4883121;29;36140;-81
2022/07/14 01:13:06;;;;;;;10.98;1.92;;;16.80;99.90;;;;;;4897537;29;39973;-80
2022/07/14 01:15:32;;;;;;;6.97;1.80;;;16.80;99.90;;;;;;4884598;29;38607;-80
2022/07/14 01:18:00;;;;;;;5.78;1.40;;;16.80;99.90;;;;;;4885466;29;38461;-80
2022/07/14 01:20:26;;;;;;;7.38;1.70;;;16.80;99.90;;;;;;4881874;29;37373;-80
2022/07/14 01:22:54;;;;;;;12.00;2.45;;;16.80;99.90;;;;;;4883029;29;40238;-81
2022/07/14 01:25:20;;;;;;;5.82;1.48;;;16.70;99.90;;;;;;4901428;29;39284;-80
2022/07/14 01:27:49;;;;;;;8.88;1.85;;;16.70;99.90;;;;;;4887516;29;38228;-82
2022/07/14 01:30:16;;;;;;;9.07;1.92;;;16.60;99.90;;;;;;4882816;29;37074;-79
2022/07/14 01:32:42;;;;;;;8.73;1.85;;;16.60;99.90;;;;;;4881833;29;38872;-80
2022/07/14 01:35:09;;;;;;;7.70;1.75;;;16.50;99.90;;;;;;4881911;29;37417;-79
2022/07/14 01:37:38;;;;;;;6.00;1.45;;;16.50;99.90;;;;;;4874153;29;37723;-80
2022/07/14 01:40:05;;;;;;;8.73;1.70;;;16.40;99.90;;;;;;4902044;29;38114;-81
2022/07/14 01:42:35;;;;;;;5.22;1.73;;;16.40;99.90;;;;;;4882316;29;38739;-80
2022/07/14 01:45:14;;;;;;;5.47;1.60;;;16.40;99.90;;;;;;4897789;29;39643;-81
2022/07/14 01:47:42;;;;;;;5.60;1.60;;;16.30;99.90;;;;;;4880325;29;48492;-80
2022/07/14 01:50:08;;;;;;;5.95;1.70;;;16.30;99.90;;;;;;4883600;29;37152;-81
2022/07/14 01:52:35;;;;;;;8.32;1.75;;;16.20;99.90;;;;;;4884862;29;39025;-81
2022/07/14 01:55:01;;;;;;;5.80;1.50;;;16.20;99.90;;;;;;4882844;29;38906;-80
2022/07/14 01:57:28;;;;;;;3.72;1.30;;;16.20;99.90;;;;;;4870490;29;38120;-80
2022/07/14 01:59:54;;;;;;;6.53;1.75;;;16.10;99.90;;;;;;4880986;29;36594;-80
2022/07/14 02:02:20;;;;;;;8.52;1.80;;;16.00;99.90;;;;;;4867933;29;40256;-80
2022/07/14 02:04:47;;;;;;;3.53;1.45;;;15.90;99.90;;;;;;4871296;29;40293;-80
2022/07/14 02:07:13;;;;;;;6.32;1.75;;;15.90;99.90;;;;;;4878145;29;38463;-80
2022/07/14 02:12:25;;;;;;;7.15;1.70;;;15.80;99.90;;;;;;4884209;29;40341;-80
2022/07/14 02:14:52;;;;;;;9.73;2.13;;;15.70;99.90;;;;;;4869106;29;38823;-80
2022/07/14 02:17:18;;;;;;;7.82;2.00;;;15.70;99.90;;;;;;4897381;29;38289;-80
2022/07/14 02:19:44;;;;;;;7.65;2.28;;;15.60;99.90;;;;;;4881410;29;37374;-80
2022/07/14 02:22:11;;;;;;;5.18;1.63;;;15.60;99.90;;;;;;4875513;29;40791;-80
2022/07/14 02:24:37;;;;;;;4.20;1.60;;;15.60;99.90;;;;;;4880511;29;40255;-81
2022/07/14 02:27:04;;;;;;;6.55;1.98;;;15.60;99.90;;;;;;4877529;29;36613;-80
2022/07/14 02:29:31;;;;;;;4.80;1.55;;;15.60;99.90;;;;;;4864688;29;39112;-81
2022/07/14 02:31:59;;;;;;;6.78;1.77;;;15.50;99.90;;;;;;4866326;29;38138;-80
2022/07/14 02:34:25;;;;;;;7.57;1.98;;;15.50;99.90;;;;;;4875822;29;38192;-80
2022/07/14 02:36:52;;;;;;;8.20;2.22;;;15.50;99.90;;;;;;4943348;23;37905;-79
2022/07/14 02:39:19;;;;;;;5.78;1.70;;;15.40;99.90;;;;;;4841368;29;37904;-80
2022/07/14 02:41:45;;;;;;;6.95;1.67;;;15.40;99.90;;;;;;4845804;29;38847;-80
2022/07/14 02:44:12;;;;;;;8.82;1.77;;;15.30;99.90;;;;;;4855737;29;38225;-79
2022/07/14 02:46:38;;;;;;;8.20;2.20;;;15.30;99.90;;;;;;4845649;29;37334;-78
2022/07/14 02:49:05;;;;;;;8.95;2.58;;;15.30;99.90;;;;;;4842382;29;37434;-80
2022/07/14 02:51:33;;;;;;;10.18;2.25;;;15.30;99.90;;;;;;4870151;29;40277;-80
2022/07/14 02:54:00;;;;;;;6.43;2.00;;;15.30;99.90;;;;;;4847669;29;39031;-79
2022/07/14 02:56:26;;;;;;;7.53;1.75;;;15.30;99.90;;;;;;4857127;29;38184;-80
2022/07/14 02:58:54;;;;;;;8.07;1.90;;;15.30;99.90;;;;;;4844016;29;36878;-79
2022/07/14 03:01:20;;;;;;;6.25;1.63;;;15.20;99.90;;;;;;4859804;29;40158;-80
2022/07/14 03:03:48;;;;;;;10.77;2.20;;;15.20;99.90;;;;;;4875792;29;38427;-79
2022/07/14 03:06:16;;;;;;;6.45;1.40;;;15.20;99.90;;;;;;4851440;29;39925;-78
2022/07/14 03:08:44;;;;;;;10.45;2.00;;;15.10;99.90;;;;;;4841551;29;37272;-79
2022/07/14 03:11:11;;;;;;;7.30;1.95;;;15.10;99.90;;;;;;4858093;29;39324;-80
2022/07/14 03:13:38;;;;;;;10.60;2.10;;;15.10;99.90;;;;;;4871822;29;38486;-79
2022/07/14 03:16:09;;;;;;;8.48;2.28;;;15.10;99.90;;;;;;4850375;29;39925;-79
2022/07/14 03:18:39;;;;;;;9.25;2.20;;;15.00;99.90;;;;;;4850860;29;36630;-78
2022/07/14 03:21:07;;;;;;;7.28;1.98;;;14.90;99.90;;;;;;4823685;29;38762;-79
2022/07/14 03:23:34;;;;;;;10.77;2.58;;;14.90;99.90;;;;;;4844922;29;37269;-78
2022/07/14 03:26:03;;;;;;;6.38;1.98;;;14.90;99.90;;;;;;4860559;29;37647;-78
2022/07/14 03:28:30;;;;;;;8.35;1.77;;;14.90;99.90;;;;;;4849929;29;47400;-78
2022/07/14 03:30:58;;;;;;;8.20;1.98;;;14.90;99.90;;;;;;4850878;29;38951;-80
2022/07/14 03:33:24;;;;;;;4.32;1.50;;;14.80;99.90;;;;;;4833717;29;37519;-81
2022/07/14 03:35:51;;;;;;;8.60;2.17;;;14.90;99.90;;;;;;4864188;29;38076;-80
2022/07/14 03:38:18;;;;;;;7.05;1.80;;;14.90;99.90;;;;;;4835334;29;1475024;-81
2022/07/14 03:40:45;;;;;;;7.97;2.90;;;14.90;99.90;;;;;;4864302;29;39055;-80
2022/07/14 03:43:16;;;;;;;6.28;2.20;;;14.90;99.90;;;;;;4884630;29;38155;-79
2022/07/14 03:45:43;;;;;;;9.52;2.08;;;14.90;99.90;;;;;;4859974;29;38412;-80
2022/07/14 03:48:10;;;;;;;6.35;2.20;;;14.90;99.90;;;;;;4855762;29;37342;-79
2022/07/14 03:50:37;;;;;;;8.77;2.10;;;15.00;99.90;;;;;;4859349;29;39252;-79
2022/07/14 03:53:04;;;;;;;5.93;1.88;;;15.00;99.90;;;;;;4866052;29;37823;-79
2022/07/14 03:55:31;;;;;;;7.68;2.03;;;14.90;99.90;;;;;;4860111;29;37702;-79
2022/07/14 03:58:00;;;;;;;6.03;1.92;;;14.90;99.90;;;;;;4862144;29;37387;-79
2022/07/14 04:00:27;;;;;;;12.20;2.20;;;14.90;99.90;;;;;;4869813;29;38310;-79
2022/07/14 04:02:55;;;;;;;7.75;1.98;;;14.90;99.90;;;;;;4880062;29;39220;-79
2022/07/14 04:05:22;;;;;;;4.93;1.65;;;15.00;99.90;;;;;;4856714;29;37583;-80
2022/07/14 04:07:49;;;;;;;4.68;1.70;;;15.00;99.90;;;;;;4863897;29;34861;-80
2022/07/14 04:10:16;;;;;;;7.40;1.77;;;15.00;99.90;;;;;;4858201;29;37950;-79
2022/07/14 04:12:44;;;;;;;11.63;2.08;;;15.00;99.90;;;;;;4887900;29;39188;-79
2022/07/14 04:15:10;;;;;;;10.88;1.67;;;15.00;99.90;;;;;;4864950;29;36835;-80
2022/07/14 04:17:38;;;;;;;4.53;1.75;;;15.10;99.90;;;;;;4876767;29;38385;-80
2022/07/14 04:20:04;;;;;;;7.55;2.10;;;15.10;99.90;;;;;;4860284;29;39458;-79
2022/07/14 04:22:31;;;;;;;5.70;1.50;;;15.10;99.90;;;;;;4859304;29;37400;-79
2022/07/14 04:24:59;;;;;;;7.10;1.90;;;15.10;99.90;;;;;;4856417;29;37084;-81
2022/07/14 04:27:26;;;;;;;6.65;2.03;;;15.10;99.90;;;;;;4860796;29;37571;-79
2022/07/14 04:29:54;;;;;;;6.25;1.90;;;15.20;99.90;;;;;;4868172;29;39106;-80
2022/07/14 04:32:21;;;;;;;6.22;2.15;;;15.20;99.90;;;;;;4858217;29;38643;-79
2022/07/14 04:34:48;;;;;;;7.32;1.77;;;15.20;99.90;;;;;;4859245;29;38222;-79
2022/07/14 04:37:14;;;;;;;8.60;1.98;;;15.20;99.90;;;;;;4871673;29;37599;-80
2022/07/14 04:39:41;;;;;;;6.70;1.95;;;15.20;99.90;;;;;;4863561;29;38997;-79
2022/07/14 04:42:09;;;;;;;7.55;1.75;;;15.30;99.90;;;;;;4876432;29;39810;-79
2022/07/14 04:44:41;;;;;;;4.60;1.58;;;15.40;99.90;;;;;;4872177;29;39421;-80
2022/07/14 04:47:09;;;;;;;8.95;2.35;;;15.40;99.90;;;;;;4875538;29;37595;-80
2022/07/14 04:52:22;;;;;;;7.75;2.00;;;15.60;99.90;;;;;;4879717;29;40139;-79
2022/07/14 04:54:51;;;;;;;6.95;1.90;;;15.60;99.90;;;;;;4864522;29;38272;-80
2022/07/14 04:57:20;;;;;;;6.75;1.80;;;15.70;99.90;;;;;;4869433;29;36741;-82
2022/07/14 04:59:47;;;;;;;9.85;2.30;;;15.80;99.90;;;;;;4866349;29;39327;-79
2022/07/14 05:02:14;;;;;;;6.53;2.13;;;15.90;99.90;;;;;;4887782;29;39614;-80
2022/07/14 05:04:44;;;;;;;6.30;1.85;;;15.90;99.90;;;;;;4862076;29;38634;-80
2022/07/14 05:07:11;;;;;;;7.03;1.90;;;15.90;99.90;;;;;;4862718;29;37172;-79
2022/07/14 05:09:45;;;;;;;9.10;1.92;;;16.00;99.90;;;;;;4885881;29;39274;-80
2022/07/14 05:12:16;;;;;;;9.30;1.92;;;16.10;99.90;;;;;;4867019;29;38846;-79
2022/07/14 05:14:42;;;;;;;8.10;2.10;;;16.20;99.90;;;;;;4862720;29;39322;-80
2022/07/14 05:17:21;;;;;;;4.65;1.52;;;16.50;99.90;;;;;;4871888;29;37765;-81
2022/07/14 05:19:51;;;;;;;6.63;1.50;;;16.70;99.90;;;;;;4869935;29;39162;-79
2022/07/14 05:22:27;;;;;;;7.70;2.45;;;16.90;99.90;;;;;;4865403;29;38644;-80
2022/07/14 05:25:18;;;;;;;10.82;2.15;;;17.10;99.90;;;;;;4864353;29;37690;-79
2022/07/14 05:28:16;;;;;;;9.75;2.70;;;17.40;99.90;;;;;;4835389;29;48628;-81
2022/07/14 05:30:47;;;;;;;8.25;1.60;;;17.80;99.90;;;;;;4853776;29;51402;-80
2022/07/14 05:58:56;;;;;;;8.60;2.70;;;18.70;99.90;;;;;;5918157;23;21433;31
2022/07/14 06:13:35;;;;;;;6.57;1.80;;;18.10;99.90;;;;;;5796197;23;20029;-80
2022/07/14 06:16:13;;;;;;;5.32;1.45;;;18.00;99.90;;;;;;4881923;29;37016;-81
2022/07/14 06:18:53;;;;;;;6.55;1.73;;;18.10;99.90;;;;;;4865329;29;39265;-81
2022/07/14 06:21:19;;;;;;;3.92;1.38;;;18.10;99.90;;;;;;4889153;29;39017;-81
2022/07/14 06:23:47;;;;;;;6.63;1.95;;;18.20;99.90;;;;;;4882271;29;38182;-81
2022/07/14 06:26:14;;;;;;;4.70;1.65;;;18.30;99.90;;;;;;4882506;29;37707;-80
2022/07/14 06:28:42;;;;;;;8.10;1.50;;;18.40;99.90;;;;;;4886899;29;38763;-81
2022/07/14 06:31:09;;;;;;;8.93;1.42;;;18.60;99.90;;;;;;4883706;29;38823;-81
2022/07/14 06:34:04;;;;;;;7.35;1.80;;;18.50;99.90;;;;;;4888671;29;38798;-81
2022/07/14 07:23:46;;;;;;;7.38;1.38;;;21.00;99.90;;;;;;5742319;23;20046;-81
2022/07/14 07:26:27;;;;;;;5.60;1.45;;;20.50;99.90;;;;;;4863993;29;39195;-81
2022/07/14 07:28:59;;;;;;;9.63;1.58;;;20.10;99.90;;;;;;4870647;29;39699;-81
2022/07/14 07:31:43;;;;;;;9.05;1.85;;;20.40;99.90;;;;;;4855552;29;40172;-79
2022/07/14 15:14:10;;;;;;;3.33;0.50;;;23.50;99.90;;;;;;5692672;23;20058;-79
2022/07/14 15:42:40;;;;;;;2.85;0.70;;;22.50;99.90;;;;;;5748251;23;20436;-77
2022/07/14 16:18:59;;;;;;;7.15;1.70;;;22.70;99.90;;;;;;5184066;23;20062;-77
2022/07/14 16:24:02;;;;;;;6.45;1.52;;;22.20;99.90;;;;;;5354967;23;20175;-78
2022/07/14 17:00:21;;;;;;;;;;;22.00;99.90;;;;;;5563597;23;20037;-79
2022/07/14 17:24:04;;;;;;;10.70;1.85;;;21.40;99.90;;;;;;5721854;23;20024;31
2022/07/14 17:35:02;;;;;;;5.60;1.30;;;21.40;99.90;;;;;;5808127;23;20068;31
2022/07/14 17:52:10;;;;;;;4.75;1.10;;;20.90;99.90;;;;;;5681048;23;20049;-79
2022/07/14 18:39:47;;;;;;;6.20;1.40;;;20.00;99.90;;;;;;5945967;23;20860;31
2022/07/14 19:15:18;;;;;;;5.85;1.45;;;18.90;99.90;;;;;;5942211;23;20024;31
2022/07/14 19:52:26;;;;;;;5.45;1.83;;;18.20;99.90;;;;;;5823820;23;20025;31
2022/07/14 19:58:18;;;;;;;4.78;1.50;;;18.10;99.90;;;;;;5782262;23;20454;31
2022/07/14 20:04:19;;;;;;;;;;;18.00;99.90;;;;;;5146252;23;20049;-81
2022/07/14 20:07:53;;;;;;;5.93;1.98;;;17.90;99.90;;;;;;4858078;29;49853;-81
2022/07/14 20:10:54;;;;;;;5.57;1.67;;;18.00;99.90;;;;;;4897739;29;50304;-80
2022/07/14 20:13:21;;;;;;;6.82;2.00;;;17.90;99.90;;;;;;4875444;29;37230;-79
2022/07/14 20:19:25;;;;;;;9.60;2.15;;;17.80;99.90;;;;;;4898295;29;50571;-79
2022/07/14 20:22:02;;;;;;;7.05;1.75;;;17.70;99.90;;;;;;4902054;29;38727;-80
2022/07/14 20:24:29;;;;;;;9.20;1.92;;;17.60;99.90;;;;;;4884390;29;48570;-79
2022/07/14 20:27:02;;;;;;;6.60;2.08;;;17.60;99.90;;;;;;4885629;29;39176;-78
2022/07/14 20:32:49;;;;;;;6.18;2.00;;;17.50;99.90;;;;;;4901127;29;50547;-80
2022/07/14 20:39:28;;;;;;;5.63;1.77;;;17.40;99.90;;;;;;4900260;29;50770;-80
2022/07/14 20:42:04;;;;;;;6.50;1.58;;;17.40;99.90;;;;;;4895103;29;48924;-80
2022/07/14 20:44:47;;;;;;;8.48;1.60;;;17.30;99.90;;;;;;4893731;29;48426;-80
2022/07/14 20:47:44;;;;;;;12.35;2.05;;;17.20;99.90;;;;;;4902154;29;37883;-80
2022/07/14 20:50:46;;;;;;;6.18;1.45;;;17.30;99.90;;;;;;4901816;29;37527;-80
2022/07/14 20:57:04;;;;;;;5.43;1.60;;;17.20;99.90;;;;;;4882542;29;50711;-80
2022/07/14 20:59:50;;;;;;;8.10;1.52;;;17.20;99.90;;;;;;4863755;29;48583;-79
2022/07/14 21:06:06;;;;;;;8.90;1.50;;;17.10;99.90;;;;;;4863308;29;50346;-80
2022/07/14 21:09:01;;;;;;;5.97;1.45;;;17.10;99.90;;;;;;4862383;29;50000;-80
2022/07/14 21:11:33;;;;;;;8.82;1.55;;;17.10;99.90;;;;;;5286628;24;39493;-79
2022/07/14 21:14:10;;;;;;;4.22;1.10;;;17.10;99.90;;;;;;4884366;29;38557;-79
2022/07/14 21:16:51;;;;;;;6.88;1.33;;;17.00;99.90;;;;;;4890830;29;47634;-79
2022/07/14 21:19:42;;;;;;;6.07;1.37;;;17.00;99.90;;;;;;4879507;29;37407;-79
2022/07/14 21:25:54;;;;;;;3.88;1.33;;;16.90;99.90;;;;;;4887041;29;50561;-78
2022/07/14 21:28:49;;;;;;;8.95;1.63;;;16.90;99.90;;;;;;4897535;29;38860;-79
2022/07/14 21:31:26;;;;;;;5.93;1.80;;;17.00;99.90;;;;;;4898577;29;38446;-79
2022/07/14 21:41:40;;;;;;;3.67;1.20;;;16.90;99.90;;;;;;5812554;23;20100;-80
2022/07/14 21:44:53;;;;;;;5.28;1.77;;;16.90;99.90;;;;;;4879806;29;38262;-79
2022/07/14 21:47:19;;;;;;;7.63;1.85;;;16.90;99.90;;;;;;4883614;29;37477;-81
2022/07/14 21:49:46;;;;;;;8.07;1.58;;;16.80;99.90;;;;;;4884382;29;38903;-81
2022/07/14 21:55:48;;;;;;;3.38;1.40;;;16.80;99.90;;;;;;4901347;29;50510;-80
2022/07/14 22:01:24;;;;;;;6.03;1.30;;;16.80;99.90;;;;;;5759587;23;20094;-85
2022/07/14 22:09:23;;;;;;;7.13;1.42;;;16.70;99.90;;;;;;5450101;23;20040;-81
2022/07/14 22:11:49;;;;;;;6.60;1.50;;;16.70;99.90;;;;;;4886851;29;39355;-80
2022/07/14 22:40:15;;;;;;;5.82;1.40;;;16.50;99.90;;;;;;5774388;23;21145;-79
2022/07/14 22:46:29;;;;;;;7.15;1.40;;;16.50;99.90;;;;;;4899248;29;50691;-80
2022/07/14 22:48:56;;;;;;;5.25;1.25;;;16.50;99.90;;;;;;4875539;29;37830;-80
2022/07/14 22:51:45;;;;;;;7.55;1.38;;;16.60;99.90;;;;;;4863103;29;36286;-78
2022/07/14 22:54:23;;;;;;;4.65;1.17;;;16.50;99.90;;;;;;4888490;29;39207;-79
2022/07/14 22:56:50;;;;;;;7.78;1.40;;;16.60;99.90;;;;;;4893567;29;38211;-81
2022/07/14 22:59:17;;;;;;;7.95;1.63;;;16.50;99.90;;;;;;4881832;29;38546;-78
2022/07/14 23:01:51;;;;;;;6.78;1.40;;;16.50;99.90;;;;;;4882225;29;38664;-79
2022/07/14 23:04:18;;;;;;;6.10;1.70;;;16.50;99.90;;;;;;4879148;29;37419;-81
2022/07/14 23:06:44;;;;;;;4.85;1.42;;;16.50;99.90;;;;;;4880929;29;38245;-79
2022/07/14 23:09:22;;;;;;;6.10;1.33;;;16.50;99.90;;;;;;4878350;29;38567;-80
2022/07/14 23:18:05;;;;;;;7.13;1.73;;;16.30;99.90;;;;;;4901189;29;40092;-79
2022/07/14 23:21:03;;;;;;;7.32;1.60;;;16.40;99.90;;;;;;4896646;29;48556;-79
2022/07/14 23:23:38;;;;;;;8.60;1.38;;;16.30;99.90;;;;;;4861274;29;48236;-79
2022/07/14 23:26:12;;;;;;;6.60;1.30;;;16.30;99.90;;;;;;4876409;29;38647;-79
2022/07/14 23:32:08;;;;;;;6.25;1.55;;;16.30;99.90;;;;;;4891216;29;50106;-80
2022/07/14 23:34:38;;;;;;;9.63;1.73;;;16.20;99.90;;;;;;4883008;29;38408;-79
2022/07/14 23:37:06;;;;;;;6.93;2.28;;;16.20;99.90;;;;;;4873237;29;39701;-81
2022/07/14 23:39:50;;;;;;;5.85;1.60;;;16.20;99.90;;;;;;4900437;29;38464;-80
2022/07/14 23:42:31;;;;;;;5.30;1.42;;;16.30;99.90;;;;;;4870728;29;38432;-79
2022/07/14 23:44:58;;;;;;;2.85;1.23;;;16.20;99.90;;;;;;4880593;29;38000;-79
2022/07/14 23:47:46;;;;;;;7.13;1.73;;;16.20;99.90;;;;;;4880485;29;38669;-78
2022/07/14 23:50:13;;;;;;;7.75;1.58;;;16.20;99.90;;;;;;4877548;29;38409;-79
2022/07/14 23:52:40;;;;;;;3.50;1.13;;;16.20;99.90;;;;;;4872749;29;39378;-79
2022/07/14 23:55:17;;;;;;;4.82;1.70;;;16.10;99.90;;;;;;4873642;29;37143;-80
2022/07/14 23:58:06;;;;;;;5.05;1.17;;;16.10;99.90;;;;;;4900185;29;39324;-78
